Time;durP1;ratioP1;P1;durP2;ratioP2;P2;SDS_P1;SDS_P2;PMS_P1;PMS_P2;Temp;Humidity;BMP_temperature;BMP_pressure;BME280_temperature;BME280_humidity;BME280_pressure;Samples;Min_cycle;Max_cycle;Signal;HPM_P1;HPM_P2
2022/01/04 00:00:17;;;;;;;4.72;1.45;;;;;;;16.60;61.15;99702.31;21071346;28;20093;-72
2022/01/04 00:10:22;;;;;;;3.35;1.08;;;;;;;16.60;61.01;99678.97;21075995;28;20072;-71
2022/01/04 00:20:23;;;;;;;5.30;1.50;;;;;;;16.59;61.06;99647.72;21086804;28;20101;-71
2022/01/04 00:30:28;;;;;;;4.47;1.40;;;;;;;16.55;61.15;99637.44;21085847;28;20051;-71
2022/01/04 00:40:30;;;;;;;4.97;1.38;;;;;;;15.73;60.88;99483.66;21085383;28;20155;-71
2022/01/04 00:50:34;;;;;;;4.38;1.40;;;;;;;16.47;60.84;99608.69;21066511;28;20382;-71
2022/01/04 01:00:36;;;;;;;4.15;1.58;;;;;;;15.78;60.97;99465.25;21065611;28;20109;-72
2022/01/04 01:10:44;;;;;;;3.83;1.52;;;;;;;16.59;61.04;99588.63;21064393;28;20048;-71
2022/01/04 01:20:48;;;;;;;3.65;1.23;;;;;;;16.02;60.85;99474.50;21080837;28;20040;-71
2022/01/04 01:30:50;;;;;;;5.88;1.60;;;;;;;16.42;61.02;99546.56;21062956;28;20051;-71
2022/01/04 01:40:53;;;;;;;3.53;1.17;;;;;;;16.58;60.93;99553.88;21081572;28;20048;-71
2022/01/04 01:50:54;;;;;;;3.53;1.33;;;;;;;16.08;61.25;99455.06;21079256;28;20110;-71
2022/01/04 02:00:56;;;;;;;3.88;1.40;;;;;;;16.54;61.16;99518.41;21078510;28;20102;-72
2022/01/04 02:10:59;;;;;;;3.60;1.30;;;;;;;16.40;61.18;99490.28;21059431;28;20412;-71
2022/01/04 02:21:00;;;;;;;3.28;1.40;;;;;;;16.35;61.36;99446.97;21059174;28;20072;-71
2022/01/04 02:31:02;;;;;;;4.63;1.50;;;;;;;15.99;61.28;99380.88;21076363;28;20040;-71
2022/01/04 02:41:04;;;;;;;4.05;1.70;;;;;;;16.03;61.33;99368.81;21075362;28;20071;-71
2022/01/04 02:51:06;;;;;;;4.32;1.30;;;;;;;16.57;61.42;99445.53;21074660;28;20052;-71
2022/01/04 03:01:08;;;;;;;5.07;1.83;;;;;;;16.44;61.03;99407.56;21047310;28;20055;-72
2022/01/04 03:11:10;;;;;;;3.97;1.33;;;;;;;16.07;60.98;99331.72;21072963;28;20052;-71
2022/01/04 03:21:12;;;;;;;3.97;1.70;;;;;;;15.96;61.15;99303.38;21054879;28;20051;-72
2022/01/04 03:31:14;;;;;;;3.70;1.55;;;;;;;16.30;61.21;99347.25;21072539;28;20047;-71
2022/01/04 03:41:17;;;;;;;4.30;1.52;;;;;;;16.18;60.94;99319.84;21071873;28;20044;-70
2022/01/04 03:51:18;;;;;;;7.20;1.67;;;;;;;16.07;61.09;99276.22;21086873;28;20066;-71
2022/01/04 04:01:20;;;;;;;3.97;1.45;;;;;;;16.48;61.12;99321.09;21089492;28;20052;-71
2022/01/04 04:11:26;;;;;;;3.35;1.67;;;;;;;16.57;60.79;99321.94;21087707;28;20102;-71
2022/01/04 04:21:28;;;;;;;2.97;1.23;;;;;;;16.52;61.28;99284.00;21086811;28;20451;-71
2022/01/04 04:31:29;;;;;;;3.85;2.13;;;;;;;16.57;61.20;99278.13;21086778;28;20106;-71
2022/01/04 04:41:31;;;;;;;5.50;2.20;;;;;;;16.56;61.17;99261.16;21067420;28;20101;-71
2022/01/04 04:51:33;;;;;;;3.35;1.65;;;;;;;16.48;61.23;99234.31;21084243;28;20052;-71
2022/01/04 05:01:36;;;;;;;3.78;2.00;;;;;;;16.03;61.05;99167.50;21084736;28;20055;-71
2022/01/04 05:11:38;;;;;;;3.67;1.63;;;;;;;16.54;61.17;99230.94;21064659;28;20135;-71
2022/01/04 05:21:40;;;;;;;3.85;2.25;;;;;;;16.46;61.21;99206.78;21081775;28;20044;-71
2022/01/04 05:31:41;;;;;;;5.97;2.17;;;;;;;16.01;60.77;99123.03;21081379;28;20570;-72
2022/01/04 05:41:43;;;;;;;5.00;2.08;;;;;;;16.42;61.04;99206.25;21080258;28;20515;-71
2022/01/04 05:51:45;;;;;;;5.22;1.88;;;;;;;16.36;61.41;99183.63;21079669;28;20448;-71
2022/01/04 06:01:47;;;;;;;3.92;1.88;;;;;;;16.09;61.12;99137.28;21060980;28;20052;-71
2022/01/04 06:21:50;;;;;;;3.78;1.83;;;;;;;15.91;61.39;99099.88;21077289;28;20055;-71
2022/01/04 06:31:52;;;;;;;5.80;3.22;;;;;;;16.40;61.54;99164.47;21058452;28;20104;-72
2022/01/04 06:41:54;;;;;;;3.65;1.95;;;;;;;16.53;61.13;99146.81;21059037;28;20059;-71
2022/01/04 06:51:56;;;;;;;4.05;1.83;;;;;;;16.16;60.63;99030.09;21074846;28;20054;-73
2022/01/04 07:02:00;;;;;;;4.55;2.22;;;;;;;16.74;60.80;99128.47;21074546;28;20055;-71
2022/01/04 07:12:02;;;;;;;5.18;2.88;;;;;;;16.46;60.45;99051.81;21073545;28;20481;-71
2022/01/04 07:22:05;;;;;;;3.88;1.85;;;;;;;16.31;60.73;99015.94;21037700;28;20432;-71
2022/01/04 07:32:06;;;;;;;3.97;1.98;;;;;;;16.95;60.84;99120.69;21054851;28;20048;-72
2022/01/04 07:42:08;;;;;;;4.47;2.50;;;;;;;16.93;61.03;99103.91;21054487;28;20043;-68
2022/01/04 07:52:10;;;;;;;4.43;1.98;;;;;;;17.01;60.99;99094.97;21054957;28;20052;-71
2022/01/04 08:02:12;;;;;;;5.30;2.20;;;;;;;17.01;61.20;99086.09;21071301;28;20060;-71
2022/01/04 08:12:14;;;;;;;3.95;2.80;;;;;;;16.49;61.62;98991.56;21071037;28;20063;-70
2022/01/04 08:22:16;;;;;;;3.60;2.60;;;;;;;17.03;61.81;99062.56;21070209;28;20048;-70
2022/01/04 08:32:18;;;;;;;5.57;2.20;;;;;;;17.05;62.15;99065.91;21058127;28;20209;-70
2022/01/04 08:42:22;;;;;;;6.38;4.50;;;;;;;16.55;61.11;98998.06;21067558;28;20048;-70
2022/01/04 08:52:26;;;;;;;4.13;3.10;;;;;;;17.02;61.50;99082.38;21085052;28;20076;-70
2022/01/04 09:02:34;;;;;;;6.22;3.00;;;;;;;16.52;61.84;98994.72;21083898;28;20048;-70
2022/01/04 09:12:49;;;;;;;5.40;3.58;;;;;;;17.03;61.39;99110.94;21065137;28;20067;-71
2022/01/04 09:22:51;;;;;;;4.50;2.10;;;;;;;17.04;61.60;99128.75;21082227;28;20052;-70
2022/01/04 09:32:53;;;;;;;2.97;1.38;;;;;;;17.03;61.48;99102.88;21081208;28;20047;-70
2022/01/04 09:42:56;;;;;;;3.55;1.70;;;;;;;16.92;61.11;99096.84;21079748;28;20168;-70
2022/01/04 09:52:59;;;;;;;2.00;1.10;;;;;;;16.91;61.28;99100.56;21079368;28;20048;-71
2022/01/04 10:03:35;;;;;;;4.38;1.40;;;;;;;17.08;61.17;99108.56;21060927;28;20054;-68
2022/01/04 10:13:37;;;;;;;3.47;1.83;;;;;;;16.62;60.87;99012.50;21045447;28;20072;-69
2022/01/04 10:23:48;;;;;;;2.55;1.75;;;;;;;17.05;60.45;99106.22;21077256;28;20036;-68
2022/01/04 10:33:52;;;;;;;3.17;1.20;;;;;;;17.03;60.43;99110.94;21058375;28;20040;-69
2022/01/04 10:44:12;;;;;;;2.13;0.93;;;;;;;16.86;59.67;99102.94;21076078;28;20043;-68
2022/01/04 10:54:19;;;;;;;2.92;1.00;;;;;;;16.97;59.61;99101.69;21075038;28;20131;-69
2022/01/04 11:04:21;;;;;;;2.15;0.73;;;;;;;16.49;59.64;99023.78;21039923;28;20056;-69
2022/01/04 11:14:24;;;;;;;1.88;0.65;;;;;;;17.00;59.07;99117.50;21073566;28;20501;-69
2022/01/04 11:24:26;;;;;;;2.45;0.73;;;;;;;16.95;59.24;99101.88;21055477;28;20108;-71
2022/01/04 11:34:57;;;;;;;1.45;0.40;;;;;;;16.49;58.42;99039.91;21055101;28;20050;-68
2022/01/04 11:45:00;;;;;;;2.03;0.63;;;;;;;16.51;58.49;99080.84;21054302;28;20113;-68
2022/01/04 11:55:17;;;;;;;1.10;0.40;;;;;;;16.93;57.98;99146.06;21053825;28;20036;-71
2022/01/04 12:05:23;;;;;;;1.80;0.50;;;;;;;16.51;57.83;99096.97;21023901;28;20071;-71
2022/01/04 12:15:34;;;;;;;2.05;0.60;;;;;;;16.88;58.38;99188.75;21069633;28;20036;-70
2022/01/04 12:25:37;;;;;;;1.35;0.65;;;;;;;16.89;58.11;99185.91;21086821;28;20059;-70
2022/01/04 12:35:48;;;;;;;1.73;0.45;;;;;;;16.31;56.82;99118.81;21085943;28;20044;-70
2022/01/04 12:46:01;;;;;;;2.45;0.45;;;;;;;16.81;56.60;99208.25;21085334;28;20056;-70
2022/01/04 12:56:03;;;;;;;3.08;0.57;;;;;;;16.29;57.22;99131.56;21084881;28;20072;-70
2022/01/04 13:06:05;;;;;;;1.90;0.77;;;;;;;16.64;57.53;99182.41;21083688;28;20071;-71
2022/01/04 13:16:20;;;;;;;1.92;0.80;;;;;;;16.81;57.19;99220.88;21063805;28;20044;-70
2022/01/04 13:26:25;;;;;;;3.33;0.43;;;;;;;16.81;57.83;99231.63;21082297;28;20395;-72
2022/01/04 13:36:27;;;;;;;1.52;0.85;;;;;;;16.75;57.45;99197.34;21081268;28;20074;-72
2022/01/04 13:46:29;;;;;;;0.85;0.40;;;;;;;16.26;57.77;99115.81;21062730;28;20113;-72
2022/01/04 13:56:32;;;;;;;1.10;0.50;;;;;;;16.74;57.83;99185.75;21061924;28;20090;-73
2022/01/04 14:06:47;;;;;;;2.63;0.60;;;;;;;16.41;57.52;99125.88;21061434;28;20056;-73
2022/01/04 14:17:06;;;;;;;2.17;0.70;;;;;;;16.37;57.82;99128.03;21060152;28;20101;-72
2022/01/04 14:27:21;;;;;;;1.25;0.60;;;;;;;16.79;57.98;99222.84;21058866;28;20044;-69
2022/01/04 14:37:23;;;;;;;6.87;1.07;;;;;;;16.31;58.12;99142.97;21058540;28;20040;-72
2022/01/04 14:47:25;;;;;;;3.03;0.50;;;;;;;16.70;57.92;99218.50;21075592;28;20097;-72
2022/01/04 14:57:28;;;;;;;1.08;0.50;;;;;;;16.29;57.82;99160.28;21075011;28;20063;-72
2022/01/04 15:07:30;;;;;;;2.25;0.60;;;;;;;16.79;57.90;99252.41;21074221;28;20130;-70
2022/01/04 15:17:32;;;;;;;1.70;0.50;;;;;;;16.80;58.26;99256.81;21055531;28;20105;-73
2022/01/04 15:27:34;;;;;;;1.80;0.68;;;;;;;16.33;58.31;99196.53;21073055;28;20085;-71
2022/01/04 15:37:37;;;;;;;5.90;0.80;;;;;;;16.42;58.05;99217.00;21072414;28;20047;-73
2022/01/04 15:47:39;;;;;;;2.38;0.70;;;;;;;16.32;58.16;99205.59;21053702;28;20102;-71
2022/01/04 15:57:40;;;;;;;2.97;0.60;;;;;;;16.37;58.05;99230.97;21071934;28;20044;-71
2022/01/04 16:07:42;;;;;;;2.25;0.60;;;;;;;16.81;57.74;99320.31;21053340;28;20481;-71
2022/01/04 16:27:46;;;;;;;2.13;0.75;;;;;;;16.82;57.21;99335.41;21052626;28;20044;-72
2022/01/04 16:37:48;;;;;;;1.85;0.60;;;;;;;16.83;56.92;99347.84;21070345;28;20048;-70
2022/01/04 16:47:51;;;;;;;2.80;0.60;;;;;;;16.85;57.12;99344.97;21070333;28;20056;-71
2022/01/04 16:57:53;;;;;;;2.22;0.70;;;;;;;16.81;56.85;99344.50;21082268;28;20055;-71
2022/01/04 17:07:55;;;;;;;2.42;0.60;;;;;;;16.87;56.80;99348.34;21083707;28;20052;-71
2022/01/04 17:17:56;;;;;;;1.77;0.75;;;;;;;16.38;56.53;99264.00;21082810;28;20040;-72
2022/01/04 17:27:58;;;;;;;2.75;0.63;;;;;;;16.86;56.31;99347.50;21064449;28;20404;-71
2022/01/04 17:38:00;;;;;;;1.83;1.02;;;;;;;16.44;56.15;99268.72;21063495;28;20044;-71
2022/01/04 17:48:03;;;;;;;2.13;0.90;;;;;;;16.87;55.95;99356.41;21080855;28;20055;-72
2022/01/04 17:58:05;;;;;;;2.00;0.60;;;;;;;16.88;55.94;99350.88;21079999;28;20046;-72
2022/01/04 18:08:07;;;;;;;1.75;0.75;;;;;;;16.38;55.63;99286.34;21078409;28;20121;-72
2022/01/04 18:18:09;;;;;;;2.10;0.70;;;;;;;16.87;55.68;99381.44;21078156;28;20052;-71
2022/01/04 18:28:12;;;;;;;1.98;0.70;;;;;;;16.28;55.40;99269.53;21059472;28;20047;-71
2022/01/04 18:38:15;;;;;;;1.52;0.60;;;;;;;16.44;55.60;99294.75;21076348;28;20047;-71
2022/01/04 18:48:17;;;;;;;1.85;1.00;;;;;;;16.40;55.45;99291.53;21058304;28;20056;-72
2022/01/04 18:58:18;;;;;;;1.95;0.70;;;;;;;16.85;55.35;99377.22;21075000;28;20055;-71
2022/01/04 19:08:21;;;;;;;2.03;0.70;;;;;;;16.85;55.13;99355.72;21075231;28;20070;-71
2022/01/04 19:18:23;;;;;;;1.98;0.80;;;;;;;16.49;55.17;99313.88;21073685;28;20048;-70
2022/01/04 19:28:25;;;;;;;2.80;1.30;;;;;;;16.52;55.60;99337.72;21073551;28;20044;-71
2022/01/04 19:38:26;;;;;;;2.63;1.00;;;;;;;16.66;55.36;99390.81;21073213;28;20044;-72
2022/01/04 19:48:28;;;;;;;3.95;1.25;;;;;;;16.49;55.27;99364.94;21072477;28;20080;-70
2022/01/04 19:58:30;;;;;;;3.83;0.93;;;;;;;16.47;55.68;99372.31;21072153;28;20408;-70
2022/01/04 20:08:32;;;;;;;1.63;0.70;;;;;;;15.91;55.86;99289.59;21071206;28;20056;-71
2022/01/04 20:18:34;;;;;;;2.67;0.90;;;;;;;15.81;56.03;99290.50;21071056;28;20500;-71
2022/01/04 20:28:36;;;;;;;2.60;0.85;;;;;;;16.22;56.07;99374.91;21077346;28;20134;-71
2022/01/04 20:38:38;;;;;;;3.53;1.30;;;;;;;15.52;56.30;99286.38;21086002;28;20515;-71
2022/01/04 20:48:42;;;;;;;5.97;1.23;;;;;;;16.03;56.31;99387.59;21085203;28;20074;-71
2022/01/04 20:58:44;;;;;;;2.20;0.85;;;;;;;15.54;56.21;99344.41;21085008;28;20131;-71
2022/01/04 21:08:49;;;;;;;2.67;1.00;;;;;;;15.84;55.96;99394.03;21083809;28;20052;-71
2022/01/04 21:18:53;;;;;;;3.00;0.90;;;;;;;15.75;55.85;99398.50;21064796;28;20078;-71
2022/01/04 21:28:55;;;;;;;3.28;1.10;;;;;;;15.66;56.12;99383.34;21082475;28;20497;-71
2022/01/04 21:38:57;;;;;;;2.53;1.20;;;;;;;15.56;56.07;99410.28;21045653;28;20048;-72
2022/01/04 21:48:58;;;;;;;2.45;0.90;;;;;;;15.48;56.23;99381.59;21080523;28;20533;-71
2022/01/04 21:59:00;;;;;;;1.67;0.60;;;;;;;15.39;56.27;99393.22;21062254;28;20474;-71
2022/01/04 22:09:02;;;;;;;3.10;1.00;;;;;;;15.25;56.11;99401.84;21079033;28;20059;-71
2022/01/04 22:19:04;;;;;;;2.78;0.85;;;;;;;14.83;56.16;99352.44;21078444;28;20063;-71
2022/01/04 22:29:14;;;;;;;3.88;0.88;;;;;;;15.19;55.92;99435.47;21077524;28;20413;-71
2022/01/04 22:39:19;;;;;;;;;;;;;;;15.11;55.83;99438.09;21077702;28;20133;-72
2022/01/04 22:49:22;;;;;;;1.33;0.60;;;;;;;14.53;55.97;99381.25;21075255;28;20701;-71
2022/01/04 22:59:23;;;;;;;3.28;0.82;;;;;;;14.46;56.32;99359.56;21075467;28;20097;-71
2022/01/04 23:09:25;;;;;;;3.17;0.75;;;;;;;14.70;56.12;99409.91;21075349;28;20132;-71
2022/01/04 23:19:27;;;;;;;2.50;1.13;;;;;;;14.75;56.59;99412.13;21073991;28;20056;-71
2022/01/04 23:29:29;;;;;;;3.85;0.82;;;;;;;14.74;55.93;99445.28;21055374;28;20085;-71
2022/01/04 23:39:32;;;;;;;2.92;1.35;;;;;;;14.28;56.25;99389.84;21072875;28;20080;-71
2022/01/04 23:49:34;;;;;;;2.40;0.75;;;;;;;14.25;55.98;99366.06;21072142;28;20388;-71
2022/01/04 23:59:37;;;;;;;2.47;0.57;;;;;;;14.41;56.07;99391.31;21072602;28;20116;-71
